createdAt,value
2023-03-07T00:00:04.177Z,55.70
2023-03-07T00:03:51.863Z,53.40
2023-03-07T00:07:18.914Z,56.40
2023-03-07T00:10:45.513Z,57.30
2023-03-07T00:14:13.160Z,55.10
2023-03-07T00:17:40.542Z,53.00
2023-03-07T00:21:09.481Z,51.00
2023-03-07T00:24:36.507Z,48.90
2023-03-07T00:28:03.986Z,47.50
2023-03-07T00:31:31.321Z,48.70
2023-03-07T00:34:59.556Z,47.60
2023-03-07T00:38:26.751Z,47.70
2023-03-07T00:41:53.594Z,45.00
2023-03-07T00:45:21.476Z,44.90
2023-03-07T00:48:50.201Z,45.80
2023-03-07T00:52:17.695Z,53.50
2023-03-07T00:55:45.121Z,55.70
2023-03-07T00:59:13.443Z,52.20
2023-03-07T01:02:41.137Z,48.80
2023-03-07T01:06:09.921Z,46.40
2023-03-07T01:09:36.861Z,49.00
2023-03-07T01:13:06.438Z,50.60
2023-03-07T01:16:36.656Z,49.30
2023-03-07T01:20:07.397Z,45.90
2023-03-07T01:23:38.054Z,44.60
2023-03-07T01:27:05.314Z,44.30
2023-03-07T01:30:31.990Z,42.00
2023-03-07T01:33:59.847Z,41.10
2023-03-07T01:37:27.924Z,40.70
2023-03-07T01:40:55.247Z,39.70
2023-03-07T01:44:25.246Z,39.50
2023-03-07T01:47:52.634Z,37.40
2023-03-07T01:51:23.335Z,40.60
2023-03-07T01:54:56.368Z,45.70
2023-03-07T01:58:23.946Z,45.80
2023-03-07T02:01:53.239Z,44.00
2023-03-07T02:05:26.187Z,42.80
2023-03-07T02:08:57.761Z,40.60
2023-03-07T02:12:26.183Z,39.50
2023-03-07T02:15:54.586Z,37.70
2023-03-07T02:19:43.357Z,35.80
2023-03-07T02:23:15.033Z,36.70
2023-03-07T02:26:46.525Z,37.30
2023-03-07T02:30:15.152Z,33.60
2023-03-07T02:33:41.968Z,33.00
2023-03-07T02:37:14.084Z,33.70
2023-03-07T02:40:41.488Z,32.30
2023-03-07T02:44:10.224Z,35.00
2023-03-07T02:47:37.481Z,34.80
2023-03-07T02:51:05.214Z,36.60
2023-03-07T02:54:33.675Z,36.00
2023-03-07T02:58:00.781Z,33.40
2023-03-07T03:01:28.446Z,33.20
2023-03-07T03:04:58.271Z,32.40
2023-03-07T03:08:25.735Z,33.80
2023-03-07T03:11:55.170Z,35.10
2023-03-07T03:15:26.812Z,34.40
2023-03-07T03:18:54.164Z,34.50
2023-03-07T03:22:20.774Z,35.00
2023-03-07T03:25:48.130Z,30.70
2023-03-07T03:29:15.251Z,30.30
2023-03-07T03:32:44.016Z,30.70
2023-03-07T03:36:15.900Z,29.20
2023-03-07T03:39:43.971Z,28.30
2023-03-07T03:43:13.485Z,27.90
2023-03-07T03:46:40.768Z,26.30
2023-03-07T03:50:08.675Z,25.20
2023-03-07T03:53:38.549Z,26.40
2023-03-07T03:57:06.075Z,26.90
2023-03-07T04:00:33.565Z,27.10
2023-03-07T04:04:02.293Z,26.20
2023-03-07T04:07:30.031Z,27.50
2023-03-07T04:10:57.252Z,28.40
2023-03-07T04:14:25.116Z,26.90
2023-03-07T04:17:51.937Z,26.80
2023-03-07T04:21:19.204Z,27.50
2023-03-07T04:24:47.263Z,27.40
2023-03-07T04:28:14.538Z,27.70
2023-03-07T04:31:41.463Z,27.80
2023-03-07T04:35:10.571Z,28.30
2023-03-07T04:38:38.618Z,27.40
2023-03-07T04:42:06.145Z,28.10
2023-03-07T04:45:38.532Z,26.60
2023-03-07T04:49:05.757Z,27.30
2023-03-07T04:52:32.771Z,27.80
2023-03-07T04:56:02.510Z,29.80
2023-03-07T04:59:29.969Z,29.30
2023-03-07T05:03:02.313Z,29.30
2023-03-07T05:06:30.416Z,28.90
2023-03-07T05:09:58.597Z,29.50
2023-03-07T05:13:25.942Z,29.10
2023-03-07T05:16:52.668Z,29.80
2023-03-07T05:20:20.612Z,27.20
2023-03-07T05:23:47.888Z,32.40
2023-03-07T05:27:15.092Z,32.10
2023-03-07T05:30:42.387Z,33.00
2023-03-07T05:34:10.950Z,33.60
2023-03-07T05:37:39.544Z,32.60
2023-03-07T05:41:07.130Z,31.00
2023-03-07T05:44:34.479Z,30.70
2023-03-07T05:48:03.440Z,31.90
2023-03-07T05:51:31.256Z,30.00
2023-03-07T05:54:59.168Z,29.80
2023-03-07T05:58:26.345Z,28.80
2023-03-07T06:01:53.476Z,28.30
2023-03-07T06:05:20.744Z,27.70
2023-03-07T06:08:47.674Z,25.40
2023-03-07T06:12:16.573Z,25.30
2023-03-07T06:15:42.908Z,24.10
2023-03-07T06:19:10.381Z,25.30
2023-03-07T06:22:38.518Z,25.40
2023-03-07T06:26:06.391Z,23.80
2023-03-07T06:29:33.672Z,22.10
2023-03-07T06:33:00.622Z,21.40
2023-03-07T06:36:28.172Z,22.00
2023-03-07T06:39:57.939Z,20.40
2023-03-07T06:43:25.225Z,19.80
2023-03-07T06:46:52.450Z,20.70
2023-03-07T06:50:26.643Z,23.60
2023-03-07T06:54:02.192Z,26.00
2023-03-07T06:57:29.605Z,30.10
2023-03-07T07:00:56.926Z,33.80
2023-03-07T07:04:24.140Z,36.60
2023-03-07T07:07:53.743Z,35.70
2023-03-07T07:11:21.655Z,38.10
2023-03-07T07:14:48.943Z,36.70
2023-03-07T07:18:16.737Z,38.20
2023-03-07T07:21:43.740Z,41.10
2023-03-07T07:25:13.105Z,50.00
2023-03-07T07:28:40.253Z,48.90
2023-03-07T07:32:09.218Z,44.60
2023-03-07T07:35:37.209Z,49.90
2023-03-07T07:39:06.341Z,47.10
2023-03-07T07:42:34.019Z,44.90
2023-03-07T07:46:10.883Z,49.50
2023-03-07T07:49:38.633Z,46.90
2023-03-07T07:53:06.380Z,57.70
2023-03-07T07:56:34.651Z,48.50
2023-03-07T08:00:01.476Z,47.00
2023-03-07T08:03:28.808Z,48.50
2023-03-07T08:06:56.730Z,45.20
2023-03-07T08:10:25.790Z,48.40
2023-03-07T08:13:53.448Z,47.50
2023-03-07T08:17:20.294Z,47.90
2023-03-07T08:20:47.776Z,48.90
2023-03-07T08:24:14.805Z,49.30
2023-03-07T08:27:41.653Z,51.00
2023-03-07T08:31:12.391Z,48.70
2023-03-07T08:34:39.069Z,46.10
2023-03-07T08:38:06.434Z,42.10
2023-03-07T08:41:35.441Z,45.50
2023-03-07T08:45:06.870Z,46.20
2023-03-07T08:48:34.084Z,44.60
2023-03-07T08:52:01.310Z,42.30
2023-03-07T08:55:29.289Z,41.70
2023-03-07T08:58:57.414Z,45.50
2023-03-07T09:02:24.376Z,47.10
2023-03-07T09:05:53.482Z,41.60
2023-03-07T09:09:20.890Z,43.00
2023-03-07T09:12:51.317Z,41.30
2023-03-07T09:16:17.941Z,41.00
2023-03-07T09:19:44.915Z,41.10
2023-03-07T09:23:12.077Z,42.30
2023-03-07T09:26:39.618Z,43.30
2023-03-07T09:30:08.275Z,41.70
2023-03-07T09:33:34.669Z,41.40
2023-03-07T09:37:01.476Z,42.70
2023-03-07T09:40:29.773Z,42.80
2023-03-07T09:44:05.724Z,47.60
2023-03-07T09:48:16.896Z,45.70
2023-03-07T09:51:46.866Z,48.80
2023-03-07T09:55:19.613Z,47.20
2023-03-07T09:58:52.969Z,46.30
2023-03-07T10:02:25.263Z,48.20
2023-03-07T10:05:53.528Z,48.40
2023-03-07T10:09:24.404Z,46.80
2023-03-07T10:13:16.146Z,48.40
2023-03-07T10:16:51.106Z,44.80
2023-03-07T10:20:25.848Z,45.10
2023-03-07T10:24:21.118Z,43.80
2023-03-07T10:27:48.581Z,44.00
2023-03-07T10:31:24.310Z,42.60
2023-03-07T10:34:58.285Z,45.50
2023-03-07T10:38:31.851Z,43.30
2023-03-07T10:41:59.398Z,42.60
2023-03-07T10:45:28.933Z,43.50
2023-03-07T10:49:03.623Z,43.50
2023-03-07T10:52:36.684Z,45.20
2023-03-07T10:56:15.874Z,47.10
2023-03-07T10:59:44.447Z,41.00
2023-03-07T11:03:26.458Z,43.90
2023-03-07T11:06:57.033Z,44.00
2023-03-07T11:10:37.370Z,43.90
2023-03-07T11:14:14.106Z,42.70
2023-03-07T11:17:45.717Z,44.90
2023-03-07T11:21:31.439Z,40.90
2023-03-07T11:25:03.929Z,39.90
2023-03-07T11:28:33.680Z,35.80
2023-03-07T11:32:13.202Z,31.00
2023-03-07T11:35:56.721Z,32.30
2023-03-07T11:39:33.200Z,29.20
2023-03-07T11:43:14.237Z,29.80
2023-03-07T11:46:56.908Z,30.20
2023-03-07T11:50:28.051Z,27.60
2023-03-07T11:54:06.794Z,26.90
2023-03-07T11:57:48.643Z,26.90
2023-03-07T12:01:27.301Z,25.90
2023-03-07T12:05:10.167Z,27.60
2023-03-07T12:12:25.824Z,26.80
2023-03-07T12:16:03.443Z,26.30
2023-03-07T12:19:52.347Z,25.10
2023-03-07T12:23:24.803Z,24.80
2023-03-07T12:26:59.398Z,27.70
2023-03-07T12:30:36.265Z,25.90
2023-03-07T12:34:08.833Z,28.20
2023-03-07T12:37:44.803Z,30.60
2023-03-07T12:41:25.936Z,29.80
2023-03-07T12:44:56.927Z,30.50
2023-03-07T12:48:31.053Z,28.60
2023-03-07T12:52:03.183Z,27.90
2023-03-07T12:55:39.104Z,27.50
2023-03-07T12:59:13.072Z,25.50
2023-03-07T13:02:45.331Z,26.30
2023-03-07T13:06:19.018Z,28.10
2023-03-07T13:16:49.500Z,25.70
2023-03-07T13:20:41.266Z,26.60
2023-03-07T13:24:37.221Z,28.70
2023-03-07T13:28:06.441Z,28.60
2023-03-07T13:31:48.943Z,29.50
2023-03-07T13:35:34.790Z,28.90
2023-03-07T13:39:01.960Z,27.80
2023-03-07T13:42:58.136Z,27.50
2023-03-07T13:46:45.718Z,27.70
2023-03-07T13:51:01.579Z,27.90
2023-03-07T13:54:28.843Z,27.60
2023-03-07T13:57:58.161Z,27.00
2023-03-07T14:01:28.957Z,26.50
2023-03-07T14:05:01.780Z,28.00
2023-03-07T14:08:33.200Z,27.10
2023-03-07T14:12:09.597Z,27.40
2023-03-07T14:15:45.674Z,27.80
2023-03-07T14:19:24.071Z,26.60
2023-03-07T14:23:07.837Z,26.80
2023-03-07T14:26:38.746Z,26.00
2023-03-07T14:30:16.910Z,27.60
2023-03-07T14:33:44.284Z,27.40
2023-03-07T14:37:16.609Z,26.40
2023-03-07T14:40:56.759Z,25.80
2023-03-07T14:44:41.598Z,29.40
2023-03-07T14:48:27.933Z,28.30
2023-03-07T14:51:54.948Z,30.70
2023-03-07T14:55:24.530Z,31.20
2023-03-07T14:58:56.218Z,29.80
2023-03-07T15:02:23.064Z,33.00
2023-03-07T15:05:58.774Z,29.50
2023-03-07T15:09:26.865Z,28.70
2023-03-07T15:12:57.267Z,26.80
2023-03-07T15:16:29.060Z,28.80
2023-03-07T15:20:00.246Z,27.50
2023-03-07T15:23:29.420Z,27.30
2023-03-07T15:26:57.539Z,29.60
2023-03-07T15:30:29.215Z,25.00
2023-03-07T15:34:11.160Z,26.60
2023-03-07T15:37:51.686Z,24.70
2023-03-07T15:41:36.171Z,24.80
2023-03-07T15:45:06.066Z,25.10
2023-03-07T15:48:41.264Z,26.40
2023-03-07T15:52:18.612Z,21.50
2023-03-07T15:55:57.021Z,22.20
2023-03-07T15:59:29.094Z,20.30
2023-03-07T16:03:19.470Z,20.60
2023-03-07T16:06:49.657Z,21.80
2023-03-07T16:10:17.178Z,20.90
2023-03-07T16:13:46.245Z,20.00
2023-03-07T16:17:21.795Z,20.30
2023-03-07T16:20:49.515Z,20.10
2023-03-07T16:24:20.027Z,19.50
2023-03-07T16:27:51.741Z,22.30
2023-03-07T16:31:20.302Z,21.10
2023-03-07T16:34:48.927Z,19.50
2023-03-07T16:38:19.806Z,19.30
2023-03-07T16:41:49.482Z,20.30
2023-03-07T16:45:22.697Z,21.60
2023-03-07T16:48:50.301Z,22.00
2023-03-07T16:52:17.617Z,21.00
2023-03-07T16:55:46.838Z,23.10
2023-03-07T16:59:17.898Z,20.20
2023-03-07T17:02:47.105Z,22.00
2023-03-07T17:06:25.336Z,21.20
2023-03-07T17:09:56.736Z,24.00
2023-03-07T17:13:23.894Z,21.70
2023-03-07T17:16:55.579Z,22.30
2023-03-07T17:20:25.178Z,16.90
2023-03-07T17:23:52.932Z,12.70
2023-03-07T17:27:20.793Z,15.40
2023-03-07T17:30:48.359Z,15.10
2023-03-07T17:34:26.062Z,11.60
2023-03-07T17:37:57.617Z,12.10
2023-03-07T17:41:28.961Z,9.00
2023-03-07T17:44:55.784Z,5.50
2023-03-07T17:48:22.669Z,4.10
2023-03-07T17:51:50.195Z,4.40
2023-03-07T17:55:20.989Z,5.90
2023-03-07T17:58:47.669Z,6.70
2023-03-07T18:02:16.361Z,6.30
2023-03-07T18:05:46.637Z,7.40
2023-03-07T18:09:15.642Z,7.40
2023-03-07T18:12:42.721Z,7.40
2023-03-07T18:16:11.858Z,8.30
2023-03-07T18:19:42.913Z,9.80
2023-03-07T18:23:09.826Z,8.40
2023-03-07T18:26:36.264Z,10.30
2023-03-07T18:30:03.215Z,8.80
2023-03-07T18:33:31.218Z,13.80
2023-03-07T18:36:58.527Z,13.30
2023-03-07T18:40:25.282Z,14.30
2023-03-07T18:43:52.447Z,11.90
2023-03-07T18:47:19.296Z,9.10
2023-03-07T18:50:56.282Z,12.80
2023-03-07T18:54:23.242Z,8.30
2023-03-07T18:57:50.353Z,11.50
2023-03-07T19:01:19.823Z,9.00
2023-03-07T19:04:51.528Z,9.50
2023-03-07T19:08:19.846Z,10.70
2023-03-07T19:11:47.703Z,11.40
2023-03-07T19:15:14.881Z,10.70
2023-03-07T19:18:42.506Z,11.90
2023-03-07T19:22:11.143Z,9.10
2023-03-07T19:25:39.328Z,11.10
2023-03-07T19:29:06.333Z,10.90
2023-03-07T19:32:34.035Z,9.30
2023-03-07T19:36:09.861Z,7.80
2023-03-07T19:39:37.426Z,9.40
2023-03-07T19:43:08.474Z,9.00
2023-03-07T19:50:04.301Z,15.20
2023-03-07T19:53:33.432Z,14.90
2023-03-07T19:57:00.462Z,12.40
2023-03-07T20:00:27.740Z,12.90
2023-03-07T20:03:55.113Z,13.30
2023-03-07T20:07:22.277Z,13.10
2023-03-07T20:10:53.833Z,11.50
2023-03-07T20:14:25.409Z,11.30
2023-03-07T20:17:54.306Z,11.90
2023-03-07T20:21:22.645Z,12.50
2023-03-07T20:24:54.460Z,11.40
2023-03-07T20:28:27.127Z,9.70
2023-03-07T20:31:56.456Z,10.40
2023-03-07T20:35:25.098Z,10.20
2023-03-07T20:38:54.775Z,10.60
2023-03-07T20:42:22.716Z,10.90
2023-03-07T20:45:50.412Z,9.90
2023-03-07T20:49:18.871Z,9.40
2023-03-07T20:52:48.373Z,10.60
2023-03-07T20:56:17.227Z,8.70
2023-03-07T20:59:47.406Z,8.80
2023-03-07T21:03:16.242Z,9.20
2023-03-07T21:06:46.297Z,11.80
2023-03-07T21:10:17.665Z,13.80
2023-03-07T21:13:47.255Z,11.50
2023-03-07T21:17:15.140Z,13.70
2023-03-07T21:20:49.270Z,11.40
2023-03-07T21:24:18.377Z,11.30
2023-03-07T21:27:47.179Z,11.00
2023-03-07T21:31:19.388Z,11.60
2023-03-07T21:34:49.361Z,10.60
2023-03-07T21:38:16.116Z,11.00
2023-03-07T21:41:42.989Z,11.70
2023-03-07T21:45:14.755Z,11.60
2023-03-07T21:48:43.014Z,10.20
2023-03-07T21:52:11.096Z,10.00
2023-03-07T21:55:42.522Z,9.80
2023-03-07T21:59:10.516Z,9.90
2023-03-07T22:02:39.423Z,9.80
2023-03-07T22:06:11.417Z,9.40
2023-03-07T22:09:39.469Z,9.50
2023-03-07T22:13:11.233Z,9.70
2023-03-07T22:16:38.661Z,9.20
2023-03-07T22:20:16.106Z,8.80
2023-03-07T22:23:44.208Z,9.30
2023-03-07T22:27:14.202Z,8.60
2023-03-07T22:30:42.514Z,10.20
2023-03-07T22:34:14.569Z,10.80
2023-03-07T22:37:43.676Z,10.30
2023-03-07T22:41:14.937Z,10.70
2023-03-07T22:44:41.894Z,10.50
2023-03-07T22:48:09.364Z,9.60
2023-03-07T22:51:38.128Z,10.40
2023-03-07T22:55:05.570Z,9.70
2023-03-07T22:58:33.055Z,8.90
2023-03-07T23:01:59.693Z,9.30
2023-03-07T23:05:26.674Z,9.10
2023-03-07T23:08:55.202Z,9.50
2023-03-07T23:12:22.625Z,9.00
2023-03-07T23:15:49.862Z,9.00
2023-03-07T23:19:31.558Z,9.60
2023-03-07T23:22:59.472Z,9.80
2023-03-07T23:26:28.866Z,9.20
2023-03-07T23:29:56.021Z,10.50
2023-03-07T23:33:23.593Z,10.70
2023-03-07T23:36:52.122Z,10.80
2023-03-07T23:40:20.001Z,10.40
2023-03-07T23:43:54.568Z,10.40
2023-03-07T23:47:21.974Z,11.60
2023-03-07T23:50:51.165Z,11.80
2023-03-07T23:54:22.250Z,9.80
2023-03-07T23:57:50.940Z,10.80
